sensor_id;sensor_type;location;lat;lon;timestamp;pressure;altitude;pressure_sealevel;temperature;humidity
23016;BME280;11674;52.428;13.584;2023-07-09T00:01:27;101753.72;;;22.57;39.02
23016;BME280;11674;52.428;13.584;2023-07-09T00:06:34;101762.81;;;22.42;39.45
23016;BME280;11674;52.428;13.584;2023-07-09T00:11:42;101769.13;;;22.27;39.57
23016;BME280;11674;52.428;13.584;2023-07-09T00:16:49;101768.81;;;22.20;39.87
23016;BME280;11674;52.428;13.584;2023-07-09T00:21:56;101772.03;;;22.10;40.24
23016;BME280;11674;52.428;13.584;2023-07-09T00:27:07;101767.28;;;22.02;40.48
23016;BME280;11674;52.428;13.584;2023-07-09T00:32:16;101757.69;;;21.95;40.49
23016;BME280;11674;52.428;13.584;2023-07-09T00:37:25;101763.59;;;21.81;40.83
23016;BME280;11674;52.428;13.584;2023-07-09T00:42:32;101757.84;;;21.69;40.93
23016;BME280;11674;52.428;13.584;2023-07-09T00:47:44;101755.84;;;21.61;41.33
23016;BME280;11674;52.428;13.584;2023-07-09T00:53:09;101747.56;;;21.56;41.54
23016;BME280;11674;52.428;13.584;2023-07-09T00:58:17;101746.25;;;21.54;41.77
23016;BME280;11674;52.428;13.584;2023-07-09T01:03:29;101738.47;;;21.51;41.97
23016;BME280;11674;52.428;13.584;2023-07-09T01:08:39;101733.31;;;21.53;42.17
23016;BME280;11674;52.428;13.584;2023-07-09T01:13:48;101737.31;;;21.52;42.02
23016;BME280;11674;52.428;13.584;2023-07-09T01:18:55;101729.31;;;21.54;42.34
23016;BME280;11674;52.428;13.584;2023-07-09T01:24:13;101734.47;;;21.52;43.11
23016;BME280;11674;52.428;13.584;2023-07-09T01:29:20;101734.00;;;21.50;42.96
23016;BME280;11674;52.428;13.584;2023-07-09T01:34:27;101742.47;;;21.50;43.19
23016;BME280;11674;52.428;13.584;2023-07-09T01:39:34;101743.28;;;21.50;43.25
23016;BME280;11674;52.428;13.584;2023-07-09T01:44:41;101742.47;;;21.50;42.88
23016;BME280;11674;52.428;13.584;2023-07-09T01:49:48;101740.47;;;21.50;42.92
23016;BME280;11674;52.428;13.584;2023-07-09T01:54:56;101741.31;;;21.51;43.51
23016;BME280;11674;52.428;13.584;2023-07-09T02:00:07;101733.03;;;21.46;43.54
23016;BME280;11674;52.428;13.584;2023-07-09T02:05:17;101727.28;;;21.34;43.56
23016;BME280;11674;52.428;13.584;2023-07-09T02:10:26;101733.28;;;21.24;43.54
23016;BME280;11674;52.428;13.584;2023-07-09T02:15:33;101738.09;;;21.23;43.58
23016;BME280;11674;52.428;13.584;2023-07-09T02:20:40;101736.91;;;21.24;43.97
23016;BME280;11674;52.428;13.584;2023-07-09T02:25:47;101739.41;;;21.26;43.80
23016;BME280;11674;52.428;13.584;2023-07-09T02:30:54;101742.22;;;21.26;43.78
23016;BME280;11674;52.428;13.584;2023-07-09T02:36:01;101740.72;;;21.28;43.59
23016;BME280;11674;52.428;13.584;2023-07-09T02:41:08;101744.41;;;21.29;43.68
23016;BME280;11674;52.428;13.584;2023-07-09T02:46:15;101747.22;;;21.29;44.04
23016;BME280;11674;52.428;13.584;2023-07-09T02:51:22;101748.38;;;21.28;43.76
23016;BME280;11674;52.428;13.584;2023-07-09T02:56:30;101747.06;;;21.25;44.22
23016;BME280;11674;52.428;13.584;2023-07-09T03:01:37;101744.91;;;21.22;44.14
23016;BME280;11674;52.428;13.584;2023-07-09T03:06:44;101746.41;;;21.20;44.13
23016;BME280;11674;52.428;13.584;2023-07-09T03:11:51;101744.25;;;21.17;44.18
23016;BME280;11674;52.428;13.584;2023-07-09T03:16:58;101758.72;;;21.15;44.12
23016;BME280;11674;52.428;13.584;2023-07-09T03:22:05;101760.25;;;21.04;44.77
23016;BME280;11674;52.428;13.584;2023-07-09T03:27:12;101768.22;;;20.85;44.81
23016;BME280;11674;52.428;13.584;2023-07-09T03:32:19;101770.38;;;20.71;45.21
23016;BME280;11674;52.428;13.584;2023-07-09T03:37:26;101773.06;;;20.68;45.65
23016;BME280;11674;52.428;13.584;2023-07-09T03:42:33;101762.63;;;20.68;46.13
23016;BME280;11674;52.428;13.584;2023-07-09T03:47:40;101768.91;;;20.65;46.20
23016;BME280;11674;52.428;13.584;2023-07-09T03:52:48;101775.06;;;20.59;46.47
23016;BME280;11674;52.428;13.584;2023-07-09T03:57:55;101771.22;;;20.89;46.47
23016;BME280;11674;52.428;13.584;2023-07-09T04:03:02;101774.91;;;21.44;46.20
23016;BME280;11674;52.428;13.584;2023-07-09T04:08:09;101781.16;;;21.95;46.13
23016;BME280;11674;52.428;13.584;2023-07-09T04:13:16;101775.44;;;22.53;45.78
23016;BME280;11674;52.428;13.584;2023-07-09T04:18:24;101786.53;;;22.91;45.23
23016;BME280;11674;52.428;13.584;2023-07-09T04:23:30;101781.44;;;23.17;44.87
23016;BME280;11674;52.428;13.584;2023-07-09T04:28:37;101794.97;;;23.44;44.29
23016;BME280;11674;52.428;13.584;2023-07-09T04:33:44;101784.16;;;23.70;44.48
23016;BME280;11674;52.428;13.584;2023-07-09T04:38:52;101777.06;;;24.12;43.98
23016;BME280;11674;52.428;13.584;2023-07-09T04:43:58;101780.81;;;24.28;43.67
23016;BME280;11674;52.428;13.584;2023-07-09T04:49:05;101785.75;;;24.43;43.39
23016;BME280;11674;52.428;13.584;2023-07-09T04:54:12;101780.19;;;24.86;43.32
23016;BME280;11674;52.428;13.584;2023-07-09T04:59:19;101792.16;;;24.79;42.77
23016;BME280;11674;52.428;13.584;2023-07-09T05:04:26;101794.75;;;24.33;43.13
23016;BME280;11674;52.428;13.584;2023-07-09T05:09:33;101788.63;;;23.71;43.48
23016;BME280;11674;52.428;13.584;2023-07-09T05:14:41;101792.00;;;23.28;44.09
23016;BME280;11674;52.428;13.584;2023-07-09T05:19:47;101793.66;;;23.09;44.07
23016;BME280;11674;52.428;13.584;2023-07-09T05:24:54;101794.38;;;23.06;44.16
23016;BME280;11674;52.428;13.584;2023-07-09T05:30:01;101786.84;;;23.10;44.22
23016;BME280;11674;52.428;13.584;2023-07-09T05:35:08;101797.78;;;23.20;44.09
23016;BME280;11674;52.428;13.584;2023-07-09T05:40:15;101795.06;;;23.23;44.02
23016;BME280;11674;52.428;13.584;2023-07-09T05:45:22;101794.34;;;23.26;44.54
23016;BME280;11674;52.428;13.584;2023-07-09T05:50:29;101802.19;;;23.41;44.44
23016;BME280;11674;52.428;13.584;2023-07-09T05:55:38;101799.34;;;23.53;44.24
23016;BME280;11674;52.428;13.584;2023-07-09T06:00:45;101807.06;;;23.65;44.25
23016;BME280;11674;52.428;13.584;2023-07-09T06:05:53;101799.50;;;23.81;43.77
23016;BME280;11674;52.428;13.584;2023-07-09T06:11:03;101799.06;;;23.91;44.15
23016;BME280;11674;52.428;13.584;2023-07-09T06:16:10;101789.47;;;24.07;43.76
23016;BME280;11674;52.428;13.584;2023-07-09T06:21:17;101795.16;;;24.19;43.69
23016;BME280;11674;52.428;13.584;2023-07-09T06:26:24;101792.84;;;24.37;43.80
23016;BME280;11674;52.428;13.584;2023-07-09T06:31:32;101791.03;;;24.56;43.95
23016;BME280;11674;52.428;13.584;2023-07-09T06:36:39;101797.00;;;24.79;43.60
23016;BME280;11674;52.428;13.584;2023-07-09T06:41:46;101799.16;;;24.97;43.41
23016;BME280;11674;52.428;13.584;2023-07-09T06:47:22;101803.72;;;25.14;43.38
23016;BME280;11674;52.428;13.584;2023-07-09T06:52:29;101806.34;;;25.34;43.28
23016;BME280;11674;52.428;13.584;2023-07-09T06:57:37;101812.59;;;25.55;43.27
23016;BME280;11674;52.428;13.584;2023-07-09T07:02:43;101810.22;;;25.73;42.69
23016;BME280;11674;52.428;13.584;2023-07-09T07:07:50;101815.53;;;25.90;42.65
23016;BME280;11674;52.428;13.584;2023-07-09T07:12:57;101807.13;;;26.09;42.24
23016;BME280;11674;52.428;13.584;2023-07-09T07:18:06;101806.28;;;26.24;42.11
23016;BME280;11674;52.428;13.584;2023-07-09T07:23:12;101803.72;;;26.38;42.09
23016;BME280;11674;52.428;13.584;2023-07-09T07:28:20;101806.91;;;26.52;41.92
23016;BME280;11674;52.428;13.584;2023-07-09T07:33:26;101809.06;;;26.74;41.74
23016;BME280;11674;52.428;13.584;2023-07-09T07:38:33;101804.91;;;26.90;41.54
23016;BME280;11674;52.428;13.584;2023-07-09T07:43:40;101806.06;;;27.05;41.21
23016;BME280;11674;52.428;13.584;2023-07-09T07:48:47;101809.09;;;27.15;40.81
23016;BME280;11674;52.428;13.584;2023-07-09T07:53:56;101802.16;;;27.32;40.65
23016;BME280;11674;52.428;13.584;2023-07-09T07:59:03;101792.97;;;27.42;40.56
23016;BME280;11674;52.428;13.584;2023-07-09T08:04:09;101801.72;;;27.52;40.09
23016;BME280;11674;52.428;13.584;2023-07-09T08:09:16;101796.00;;;27.75;39.71
23016;BME280;11674;52.428;13.584;2023-07-09T08:14:23;101804.91;;;27.92;39.54
23016;BME280;11674;52.428;13.584;2023-07-09T08:19:31;101798.59;;;28.06;39.25
23016;BME280;11674;52.428;13.584;2023-07-09T08:24:38;101799.31;;;28.25;38.76
23016;BME280;11674;52.428;13.584;2023-07-09T08:29:46;101804.94;;;28.44;38.99
23016;BME280;11674;52.428;13.584;2023-07-09T08:34:53;101807.38;;;28.72;38.23
23016;BME280;11674;52.428;13.584;2023-07-09T08:40:00;101801.91;;;28.93;38.18
23016;BME280;11674;52.428;13.584;2023-07-09T08:45:28;101789.00;;;29.02;38.02
23016;BME280;11674;52.428;13.584;2023-07-09T08:50:43;101793.31;;;29.22;37.30
23016;BME280;11674;52.428;13.584;2023-07-09T08:55:53;101791.47;;;29.40;37.18
23016;BME280;11674;52.428;13.584;2023-07-09T09:01:03;101786.34;;;29.56;36.83
23016;BME280;11674;52.428;13.584;2023-07-09T09:06:17;101779.50;;;29.68;36.46
23016;BME280;11674;52.428;13.584;2023-07-09T09:12:13;101775.59;;;29.90;36.39
23016;BME280;11674;52.428;13.584;2023-07-09T09:17:13;101779.50;;;30.11;36.01
23016;BME280;11674;52.428;13.584;2023-07-09T09:22:33;101767.72;;;30.30;35.64
23016;BME280;11674;52.428;13.584;2023-07-09T09:27:43;101764.22;;;30.58;35.11
23016;BME280;11674;52.428;13.584;2023-07-09T09:32:56;101777.44;;;30.80;34.32
23016;BME280;11674;52.428;13.584;2023-07-09T09:38:21;101778.31;;;30.91;33.61
23016;BME280;11674;52.428;13.584;2023-07-09T09:43:32;101776.69;;;30.97;32.68
23016;BME280;11674;52.428;13.584;2023-07-09T09:48:38;101777.91;;;30.96;33.80
23016;BME280;11674;52.428;13.584;2023-07-09T09:53:52;101774.22;;;30.95;32.88
23016;BME280;11674;52.428;13.584;2023-07-09T09:59:00;101774.25;;;30.99;32.79
23016;BME280;11674;52.428;13.584;2023-07-09T10:04:10;101776.34;;;31.16;32.87
23016;BME280;11674;52.428;13.584;2023-07-09T10:31:03;101771.94;;;31.60;31.01
23016;BME280;11674;52.428;13.584;2023-07-09T10:36:22;101767.06;;;31.82;31.64
23016;BME280;11674;52.428;13.584;2023-07-09T10:41:35;101770.31;;;32.05;30.99
23016;BME280;11674;52.428;13.584;2023-07-09T10:46:46;101765.78;;;32.18;30.58
23016;BME280;11674;52.428;13.584;2023-07-09T11:02:57;101746.66;;;32.97;29.43
23016;BME280;11674;52.428;13.584;2023-07-09T11:08:09;101747.88;;;33.00;29.38
23016;BME280;11674;52.428;13.584;2023-07-09T11:13:43;101749.41;;;33.18;28.78
23016;BME280;11674;52.428;13.584;2023-07-09T11:18:59;101744.00;;;33.34;28.45
23016;BME280;11674;52.428;13.584;2023-07-09T11:24:45;101738.50;;;33.54;28.46
23016;BME280;11674;52.428;13.584;2023-07-09T11:30:02;101736.41;;;33.58;28.22
23016;BME280;11674;52.428;13.584;2023-07-09T11:35:21;101729.34;;;33.66;28.54
23016;BME280;11674;52.428;13.584;2023-07-09T11:40:29;101719.31;;;33.88;27.86
23016;BME280;11674;52.428;13.584;2023-07-09T11:45:36;101710.53;;;33.98;27.72
23016;BME280;11674;52.428;13.584;2023-07-09T11:50:46;101711.75;;;34.01;27.61
23016;BME280;11674;52.428;13.584;2023-07-09T11:55:55;101708.44;;;34.43;27.15
23016;BME280;11674;52.428;13.584;2023-07-09T12:01:09;101697.50;;;34.24;27.56
23016;BME280;11674;52.428;13.584;2023-07-09T12:06:23;101698.47;;;34.47;27.21
23016;BME280;11674;52.428;13.584;2023-07-09T12:11:34;101688.25;;;35.03;26.51
23016;BME280;11674;52.428;13.584;2023-07-09T12:16:43;101686.78;;;35.18;26.48
23016;BME280;11674;52.428;13.584;2023-07-09T12:21:56;101683.03;;;35.21;26.72
23016;BME280;11674;52.428;13.584;2023-07-09T12:27:26;101677.84;;;35.85;26.31
23016;BME280;11674;52.428;13.584;2023-07-09T12:32:43;101673.56;;;36.35;26.33
23016;BME280;11674;52.428;13.584;2023-07-09T12:37:51;101673.19;;;37.08;25.95
23016;BME280;11674;52.428;13.584;2023-07-09T12:42:58;101660.09;;;37.51;25.50
23016;BME280;11674;52.428;13.584;2023-07-09T12:48:07;101652.56;;;37.86;24.78
23016;BME280;11674;52.428;13.584;2023-07-09T12:53:20;101648.03;;;38.01;24.21
23016;BME280;11674;52.428;13.584;2023-07-09T12:58:32;101642.75;;;37.96;23.55
23016;BME280;11674;52.428;13.584;2023-07-09T13:03:40;101640.88;;;37.89;23.64
23016;BME280;11674;52.428;13.584;2023-07-09T13:08:47;101631.94;;;37.68;23.20
23016;BME280;11674;52.428;13.584;2023-07-09T13:13:58;101628.91;;;37.07;23.53
23016;BME280;11674;52.428;13.584;2023-07-09T13:19:05;101635.56;;;37.24;23.01
23016;BME280;11674;52.428;13.584;2023-07-09T13:24:27;101624.72;;;37.44;22.61
23016;BME280;11674;52.428;13.584;2023-07-09T13:29:35;101639.84;;;37.00;22.98
23016;BME280;11674;52.428;13.584;2023-07-09T13:34:42;101630.25;;;36.87;22.81
23016;BME280;11674;52.428;13.584;2023-07-09T13:39:49;101623.16;;;36.72;22.68
23016;BME280;11674;52.428;13.584;2023-07-09T13:44:56;101624.75;;;37.08;22.61
23016;BME280;11674;52.428;13.584;2023-07-09T13:50:03;101624.59;;;36.99;22.30
23016;BME280;11674;52.428;13.584;2023-07-09T13:55:22;101623.09;;;36.91;22.42
23016;BME280;11674;52.428;13.584;2023-07-09T14:00:29;101619.75;;;36.93;22.75
23016;BME280;11674;52.428;13.584;2023-07-09T14:05:36;101625.75;;;37.02;22.41
23016;BME280;11674;52.428;13.584;2023-07-09T14:10:44;101617.38;;;36.72;22.68
23016;BME280;11674;52.428;13.584;2023-07-09T14:15:51;101610.63;;;36.78;22.56
23016;BME280;11674;52.428;13.584;2023-07-09T14:20:58;101599.50;;;36.57;22.18
23016;BME280;11674;52.428;13.584;2023-07-09T14:26:05;101599.06;;;36.39;22.60
23016;BME280;11674;52.428;13.584;2023-07-09T14:31:27;101592.84;;;37.12;22.59
23016;BME280;11674;52.428;13.584;2023-07-09T14:36:35;101598.72;;;37.56;22.17
23016;BME280;11674;52.428;13.584;2023-07-09T14:41:42;101592.47;;;37.42;22.20
23016;BME280;11674;52.428;13.584;2023-07-09T14:46:53;101598.66;;;37.28;22.20
23016;BME280;11674;52.428;13.584;2023-07-09T14:52:01;101586.53;;;36.81;22.15
23016;BME280;11674;52.428;13.584;2023-07-09T14:57:19;101578.28;;;36.44;22.53
23016;BME280;11674;52.428;13.584;2023-07-09T15:02:39;101581.38;;;36.53;22.38
23016;BME280;11674;52.428;13.584;2023-07-09T15:07:47;101589.06;;;36.79;22.64
23016;BME280;11674;52.428;13.584;2023-07-09T15:12:55;101577.41;;;36.99;21.89
23016;BME280;11674;52.428;13.584;2023-07-09T15:18:10;101567.22;;;36.59;21.84
23016;BME280;11674;52.428;13.584;2023-07-09T15:23:18;101561.69;;;36.09;22.16
23016;BME280;11674;52.428;13.584;2023-07-09T15:28:26;101564.38;;;36.20;22.64
23016;BME280;11674;52.428;13.584;2023-07-09T15:33:33;101552.69;;;36.27;22.42
23016;BME280;11674;52.428;13.584;2023-07-09T15:38:40;101544.78;;;36.27;22.99
23016;BME280;11674;52.428;13.584;2023-07-09T15:43:47;101544.88;;;36.24;22.55
23016;BME280;11674;52.428;13.584;2023-07-09T15:48:55;101539.00;;;36.08;22.75
23016;BME280;11674;52.428;13.584;2023-07-09T15:54:25;101528.88;;;36.00;22.53
23016;BME280;11674;52.428;13.584;2023-07-09T15:59:34;101527.28;;;35.95;22.82
23016;BME280;11674;52.428;13.584;2023-07-09T16:04:43;101510.91;;;35.89;22.68
23016;BME280;11674;52.428;13.584;2023-07-09T16:09:50;101510.72;;;35.57;22.67
23016;BME280;11674;52.428;13.584;2023-07-09T16:14:57;101503.03;;;35.50;23.08
23016;BME280;11674;52.428;13.584;2023-07-09T16:20:04;101491.66;;;35.63;23.27
23016;BME280;11674;52.428;13.584;2023-07-09T16:25:14;101482.16;;;35.82;23.06
23016;BME280;11674;52.428;13.584;2023-07-09T16:30:24;101483.59;;;35.74;22.98
23016;BME280;11674;52.428;13.584;2023-07-09T16:35:31;101473.41;;;35.46;22.97
23016;BME280;11674;52.428;13.584;2023-07-09T16:40:38;101469.84;;;35.16;23.28
23016;BME280;11674;52.428;13.584;2023-07-09T16:45:46;101459.81;;;35.01;22.80
23016;BME280;11674;52.428;13.584;2023-07-09T16:50:54;101465.78;;;34.90;23.33
23016;BME280;11674;52.428;13.584;2023-07-09T16:56:02;101478.34;;;34.80;23.55
23016;BME280;11674;52.428;13.584;2023-07-09T17:01:09;101482.22;;;34.93;24.10
23016;BME280;11674;52.428;13.584;2023-07-09T17:06:16;101479.47;;;35.09;23.86
23016;BME280;11674;52.428;13.584;2023-07-09T17:11:23;101485.16;;;35.13;24.46
23016;BME280;11674;52.428;13.584;2023-07-09T17:16:30;101480.41;;;35.03;24.58
23016;BME280;11674;52.428;13.584;2023-07-09T17:21:38;101471.69;;;34.83;24.48
23016;BME280;11674;52.428;13.584;2023-07-09T17:26:49;101478.91;;;34.45;24.87
23016;BME280;11674;52.428;13.584;2023-07-09T17:31:56;101492.03;;;34.20;24.94
23016;BME280;11674;52.428;13.584;2023-07-09T17:37:03;101481.09;;;33.78;25.16
23016;BME280;11674;52.428;13.584;2023-07-09T17:42:15;101501.19;;;33.48;25.68
23016;BME280;11674;52.428;13.584;2023-07-09T17:47:22;101496.44;;;33.27;25.72
23016;BME280;11674;52.428;13.584;2023-07-09T17:52:29;101512.59;;;33.18;25.84
23016;BME280;11674;52.428;13.584;2023-07-09T17:57:36;101509.38;;;33.09;26.49
23016;BME280;11674;52.428;13.584;2023-07-09T18:02:44;101512.06;;;32.86;26.67
23016;BME280;11674;52.428;13.584;2023-07-09T18:07:53;101522.81;;;32.78;26.80
23016;BME280;11674;52.428;13.584;2023-07-09T18:13:17;101532.38;;;32.61;27.05
23016;BME280;11674;52.428;13.584;2023-07-09T18:18:24;101526.25;;;32.56;27.16
23016;BME280;11674;52.428;13.584;2023-07-09T18:23:31;101527.59;;;32.37;27.50
23016;BME280;11674;52.428;13.584;2023-07-09T18:28:38;101524.78;;;32.20;27.75
23016;BME280;11674;52.428;13.584;2023-07-09T18:33:45;101516.28;;;31.99;28.34
23016;BME280;11674;52.428;13.584;2023-07-09T18:38:52;101528.31;;;31.76;28.59
23016;BME280;11674;52.428;13.584;2023-07-09T18:43:59;101537.38;;;31.50;29.01
23016;BME280;11674;52.428;13.584;2023-07-09T18:49:09;101526.75;;;31.30;29.43
23016;BME280;11674;52.428;13.584;2023-07-09T18:54:18;101537.00;;;31.13;29.49
23016;BME280;11674;52.428;13.584;2023-07-09T18:59:25;101521.44;;;30.97;30.02
23016;BME280;11674;52.428;13.584;2023-07-09T19:04:32;101530.03;;;30.69;30.53
23016;BME280;11674;52.428;13.584;2023-07-09T19:09:39;101530.81;;;30.52;30.58
23016;BME280;11674;52.428;13.584;2023-07-09T19:14:46;101531.56;;;30.31;30.78
23016;BME280;11674;52.428;13.584;2023-07-09T19:19:53;101547.50;;;30.11;31.32
23016;BME280;11674;52.428;13.584;2023-07-09T19:25:00;101543.28;;;29.88;31.85
23016;BME280;11674;52.428;13.584;2023-07-09T19:30:07;101551.69;;;29.56;31.97
23016;BME280;11674;52.428;13.584;2023-07-09T19:35:17;101539.91;;;29.11;33.37
23016;BME280;11674;52.428;13.584;2023-07-09T19:40:27;101547.88;;;28.91;33.49
23016;BME280;11674;52.428;13.584;2023-07-09T19:45:38;101535.16;;;28.82;34.19
23016;BME280;11674;52.428;13.584;2023-07-09T19:50:47;101534.66;;;28.73;34.02
23016;BME280;11674;52.428;13.584;2023-07-09T19:55:55;101529.59;;;28.56;34.09
23016;BME280;11674;52.428;13.584;2023-07-09T20:01:18;101523.38;;;28.47;34.56
23016;BME280;11674;52.428;13.584;2023-07-09T20:06:25;101535.50;;;28.37;34.32
23016;BME280;11674;52.428;13.584;2023-07-09T20:11:32;101524.72;;;28.20;34.74
23016;BME280;11674;52.428;13.584;2023-07-09T20:16:39;101531.56;;;28.12;34.97
23016;BME280;11674;52.428;13.584;2023-07-09T20:21:46;101535.19;;;28.09;35.18
23016;BME280;11674;52.428;13.584;2023-07-09T20:26:53;101525.34;;;28.03;35.46
23016;BME280;11674;52.428;13.584;2023-07-09T20:32:00;101536.47;;;27.82;35.48
23016;BME280;11674;52.428;13.584;2023-07-09T20:37:09;101521.19;;;27.67;35.84
23016;BME280;11674;52.428;13.584;2023-07-09T20:42:16;101535.16;;;27.46;36.23
23016;BME280;11674;52.428;13.584;2023-07-09T20:47:23;101538.84;;;27.47;36.05
23016;BME280;11674;52.428;13.584;2023-07-09T20:52:30;101545.41;;;27.51;36.10
23016;BME280;11674;52.428;13.584;2023-07-09T20:57:37;101546.66;;;27.53;36.09
23016;BME280;11674;52.428;13.584;2023-07-09T21:02:46;101547.41;;;27.47;36.07
23016;BME280;11674;52.428;13.584;2023-07-09T21:07:53;101547.19;;;27.33;36.10
23016;BME280;11674;52.428;13.584;2023-07-09T21:13:00;101557.38;;;27.34;36.42
23016;BME280;11674;52.428;13.584;2023-07-09T21:18:13;101554.84;;;27.29;36.56
23016;BME280;11674;52.428;13.584;2023-07-09T21:23:22;101554.16;;;27.13;36.72
23016;BME280;11674;52.428;13.584;2023-07-09T21:28:29;101560.22;;;27.11;37.04
23016;BME280;11674;52.428;13.584;2023-07-09T21:33:36;101555.69;;;27.07;37.13
23016;BME280;11674;52.428;13.584;2023-07-09T21:38:43;101563.34;;;27.03;36.77
23016;BME280;11674;52.428;13.584;2023-07-09T21:43:50;101551.09;;;26.99;36.49
23016;BME280;11674;52.428;13.584;2023-07-09T21:48:57;101554.28;;;26.94;36.49
23016;BME280;11674;52.428;13.584;2023-07-09T21:59:31;101547.63;;;26.86;36.10
23016;BME280;11674;52.428;13.584;2023-07-09T22:04:38;101555.34;;;26.86;36.05
23016;BME280;11674;52.428;13.584;2023-07-09T22:09:45;101553.63;;;26.81;36.05
23016;BME280;11674;52.428;13.584;2023-07-09T22:14:54;101546.16;;;26.73;35.78
23016;BME280;11674;52.428;13.584;2023-07-09T22:20:08;101545.53;;;26.61;36.10
23016;BME280;11674;52.428;13.584;2023-07-09T22:25:18;101543.97;;;26.44;36.29
23016;BME280;11674;52.428;13.584;2023-07-09T22:30:28;101543.09;;;26.40;36.55
23016;BME280;11674;52.428;13.584;2023-07-09T22:35:35;101545.19;;;26.43;36.46
23016;BME280;11674;52.428;13.584;2023-07-09T22:40:42;101541.50;;;26.43;36.47
23016;BME280;11674;52.428;13.584;2023-07-09T22:45:50;101546.72;;;26.37;36.40
23016;BME280;11674;52.428;13.584;2023-07-09T22:50:57;101547.88;;;26.36;36.54
23016;BME280;11674;52.428;13.584;2023-07-09T22:56:04;101551.13;;;26.35;36.59
23016;BME280;11674;52.428;13.584;2023-07-09T23:01:17;101553.22;;;26.38;36.37
23016;BME280;11674;52.428;13.584;2023-07-09T23:06:26;101548.78;;;26.40;36.22
23016;BME280;11674;52.428;13.584;2023-07-09T23:11:37;101543.34;;;26.32;36.11
23016;BME280;11674;52.428;13.584;2023-07-09T23:16:45;101544.72;;;26.19;36.25
23016;BME280;11674;52.428;13.584;2023-07-09T23:21:52;101550.41;;;26.19;36.46
23016;BME280;11674;52.428;13.584;2023-07-09T23:27:02;101553.16;;;26.15;36.39
23016;BME280;11674;52.428;13.584;2023-07-09T23:32:14;101545.16;;;26.02;36.29
23016;BME280;11674;52.428;13.584;2023-07-09T23:37:21;101549.22;;;26.01;36.39
23016;BME280;11674;52.428;13.584;2023-07-09T23:42:28;101545.16;;;26.02;36.29
23016;BME280;11674;52.428;13.584;2023-07-09T23:47:35;101537.28;;;25.76;37.24
23016;BME280;11674;52.428;13.584;2023-07-09T23:52:46;101531.69;;;25.61;37.60
23016;BME280;11674;52.428;13.584;2023-07-09T23:57:56;101534.06;;;25.59;37.77
